createdAt,value
2022-10-11T00:02:26.363Z,94.61
2022-10-11T00:05:31.107Z,95.59
2022-10-11T00:08:35.604Z,95.72
2022-10-11T00:11:40.554Z,96.08
2022-10-11T00:14:44.929Z,97.52
2022-10-11T00:17:49.455Z,97.12
2022-10-11T00:21:12.420Z,96.22
2022-10-11T00:24:17.672Z,96.70
2022-10-11T00:27:21.977Z,96.74
2022-10-11T00:30:26.365Z,96.78
2022-10-11T00:33:30.792Z,96.31
2022-10-11T00:36:35.558Z,96.06
2022-10-11T00:39:39.790Z,95.20
2022-10-11T00:42:44.628Z,94.83
2022-10-11T00:45:58.109Z,93.65
2022-10-11T00:49:14.510Z,93.39
2022-10-11T00:52:41.692Z,94.03
2022-10-11T00:55:56.829Z,93.56
2022-10-11T00:59:06.270Z,93.54
2022-10-11T01:02:11.748Z,93.90
2022-10-11T01:05:29.605Z,94.79
2022-10-11T01:08:35.068Z,95.90
2022-10-11T01:11:42.356Z,96.22
2022-10-11T01:14:58.022Z,95.42
2022-10-11T01:18:10.498Z,95.72
2022-10-11T01:21:40.626Z,95.94
2022-10-11T01:25:09.233Z,96.04
2022-10-11T01:29:01.207Z,96.64
2022-10-11T01:32:39.661Z,97.60
2022-10-11T01:35:59.342Z,96.86
2022-10-11T01:39:49.894Z,97.68
2022-10-11T01:42:57.235Z,96.87
2022-10-11T01:46:05.224Z,97.01
2022-10-11T01:49:10.272Z,97.77
2022-10-11T01:52:14.743Z,97.79
2022-10-11T01:55:44.096Z,97.36
2022-10-11T01:59:09.726Z,98.25
2022-10-11T02:02:41.689Z,97.77
2022-10-11T02:05:57.710Z,98.54
2022-10-11T02:09:12.220Z,98.99
2022-10-11T02:12:26.516Z,98.95
2022-10-11T02:15:36.271Z,97.83
2022-10-11T02:18:46.959Z,97.70
2022-10-11T02:21:56.104Z,97.65
2022-10-11T02:25:06.039Z,98.19
2022-10-11T02:28:17.222Z,97.42
2022-10-11T02:31:23.388Z,95.80
2022-10-11T02:34:34.815Z,97.60
2022-10-11T02:37:48.146Z,97.84
2022-10-11T02:40:59.905Z,97.77
2022-10-11T02:44:32.860Z,97.35
2022-10-11T02:47:38.017Z,97.53
2022-10-11T02:50:43.323Z,96.19
2022-10-11T02:53:47.928Z,96.93
2022-10-11T02:56:52.337Z,95.71
2022-10-11T02:59:57.236Z,96.48
2022-10-11T03:03:01.677Z,95.17
2022-10-11T03:06:09.700Z,95.93
2022-10-11T03:09:13.966Z,95.85
2022-10-11T03:12:18.203Z,96.11
2022-10-11T03:15:22.880Z,95.05
2022-10-11T03:18:27.240Z,96.40
2022-10-11T03:21:31.494Z,95.64
2022-10-11T03:24:35.713Z,94.82
2022-10-11T03:27:40.041Z,94.66
2022-10-11T03:30:44.358Z,95.19
2022-10-11T03:33:49.260Z,94.59
2022-10-11T03:36:58.060Z,94.36
2022-10-11T03:40:02.414Z,95.98
2022-10-11T03:43:07.181Z,94.57
2022-10-11T03:46:11.449Z,93.44
2022-10-11T03:49:15.752Z,90.41
2022-10-11T03:52:20.067Z,89.92
2022-10-11T03:55:24.479Z,90.27
2022-10-11T03:58:28.844Z,89.79
2022-10-11T04:01:38.418Z,89.07
2022-10-11T04:04:43.024Z,89.01
2022-10-11T04:07:47.329Z,88.06
2022-10-11T04:10:51.842Z,86.05
2022-10-11T04:13:56.118Z,86.17
2022-10-11T04:17:00.704Z,85.19
2022-10-11T04:20:05.611Z,84.25
2022-10-11T04:23:10.012Z,84.23
2022-10-11T04:26:14.763Z,83.05
2022-10-11T04:29:19.097Z,83.94
2022-10-11T04:32:23.725Z,84.25
2022-10-11T04:35:28.531Z,83.27
2022-10-11T04:38:32.987Z,82.74
2022-10-11T04:41:37.774Z,82.10
2022-10-11T04:44:42.334Z,82.10
2022-10-11T04:47:46.794Z,82.68
2022-10-11T04:50:51.260Z,82.35
2022-10-11T04:53:56.011Z,79.47
2022-10-11T04:57:00.449Z,79.96
2022-10-11T05:00:06.827Z,79.60
2022-10-11T05:03:11.226Z,79.56
2022-10-11T05:06:15.887Z,78.08
2022-10-11T05:09:20.411Z,78.05
2022-10-11T05:12:25.040Z,75.41
2022-10-11T05:15:29.428Z,74.91
2022-10-11T05:18:33.850Z,74.64
2022-10-11T05:21:38.122Z,74.17
2022-10-11T05:24:42.589Z,74.31
2022-10-11T05:27:46.885Z,71.97
2022-10-11T05:30:51.091Z,73.88
2022-10-11T05:33:55.757Z,73.08
2022-10-11T05:37:00.184Z,73.29
2022-10-11T05:40:05.361Z,72.27
2022-10-11T05:43:09.745Z,72.28
2022-10-11T05:46:14.738Z,71.60
2022-10-11T05:49:19.179Z,71.58
2022-10-11T05:52:23.576Z,71.34
2022-10-11T05:55:28.441Z,70.53
2022-10-11T05:58:32.988Z,70.12
2022-10-11T06:01:37.334Z,69.48
2022-10-11T06:04:41.700Z,69.70
2022-10-11T06:07:46.275Z,69.51
2022-10-11T06:10:50.739Z,69.61
2022-10-11T06:13:56.586Z,68.58
2022-10-11T06:17:01.142Z,68.67
2022-10-11T06:20:06.180Z,68.46
2022-10-11T06:23:10.616Z,68.13
2022-10-11T06:26:14.844Z,67.14
2022-10-11T06:29:19.357Z,67.09
2022-10-11T06:32:24.080Z,66.86
2022-10-11T06:35:28.459Z,66.50
2022-10-11T06:38:32.787Z,66.50
2022-10-11T06:41:37.301Z,66.53
2022-10-11T06:44:41.646Z,66.09
2022-10-11T06:47:45.744Z,65.54
2022-10-11T06:50:59.716Z,64.89
2022-10-11T06:54:06.268Z,66.30
2022-10-11T06:57:10.982Z,65.46
2022-10-11T07:00:16.305Z,65.25
2022-10-11T07:03:20.977Z,65.59
2022-10-11T07:06:28.698Z,64.99
2022-10-11T07:09:33.160Z,64.95
2022-10-11T07:12:37.636Z,65.76
2022-10-11T07:15:42.226Z,66.15
2022-10-11T07:18:47.439Z,64.98
2022-10-11T07:21:51.974Z,64.63
2022-10-11T07:24:57.260Z,64.25
2022-10-11T07:28:01.872Z,65.24
2022-10-11T07:31:08.915Z,62.88
2022-10-11T07:34:13.657Z,60.39
2022-10-11T07:37:18.078Z,61.46
2022-10-11T07:40:22.329Z,62.47
2022-10-11T07:43:27.346Z,62.71
2022-10-11T07:46:32.167Z,61.86
2022-10-11T07:49:36.493Z,61.38
2022-10-11T07:52:41.148Z,61.19
2022-10-11T07:55:45.795Z,62.14
2022-10-11T07:59:00.005Z,60.25
2022-10-11T08:02:04.268Z,61.16
2022-10-11T08:05:08.986Z,61.35
2022-10-11T08:08:13.210Z,60.14
2022-10-11T08:11:31.946Z,59.45
2022-10-11T08:14:36.311Z,58.74
2022-10-11T08:17:40.961Z,59.30
2022-10-11T08:20:45.691Z,58.38
2022-10-11T08:23:50.196Z,57.70
2022-10-11T08:26:59.208Z,58.34
2022-10-11T08:30:06.621Z,58.20
2022-10-11T08:33:15.610Z,55.43
2022-10-11T08:36:21.151Z,56.25
2022-10-11T08:39:25.724Z,56.58
2022-10-11T08:42:47.671Z,53.88
2022-10-11T08:45:57.304Z,55.01
2022-10-11T08:49:03.940Z,56.53
2022-10-11T08:52:20.534Z,54.02
2022-10-11T08:55:50.080Z,55.41
2022-10-11T08:59:06.155Z,53.24
2022-10-11T09:02:21.738Z,54.03
2022-10-11T09:05:32.207Z,55.90
2022-10-11T09:09:01.421Z,55.01
2022-10-11T09:12:40.634Z,52.83
2022-10-11T09:16:04.046Z,56.67
2022-10-11T09:19:33.869Z,54.97
2022-10-11T09:23:04.891Z,55.37
2022-10-11T09:26:15.037Z,56.65
2022-10-11T09:29:30.507Z,57.50
2022-10-11T09:32:43.197Z,58.69
2022-10-11T09:35:53.031Z,57.68
2022-10-11T09:39:08.438Z,59.08
2022-10-11T09:42:19.510Z,60.27
2022-10-11T09:45:24.384Z,60.26
2022-10-11T09:48:39.363Z,61.25
2022-10-11T09:51:51.267Z,62.68
2022-10-11T09:55:07.259Z,64.39
2022-10-11T09:58:34.692Z,65.09
2022-10-11T10:01:39.445Z,64.38
2022-10-11T10:05:11.928Z,63.01
2022-10-11T10:08:25.840Z,63.44
2022-10-11T10:11:38.493Z,62.46
2022-10-11T10:14:43.348Z,64.26
2022-10-11T10:17:54.157Z,64.85
2022-10-11T10:21:04.193Z,65.81
2022-10-11T10:24:29.270Z,66.25
2022-10-11T10:27:36.840Z,66.88
2022-10-11T10:31:01.017Z,67.13
2022-10-11T10:34:15.292Z,67.15
2022-10-11T10:37:52.806Z,68.03
2022-10-11T10:41:04.564Z,67.90
2022-10-11T10:44:21.218Z,67.76
2022-10-11T10:47:51.035Z,69.52
2022-10-11T10:51:10.646Z,69.65
2022-10-11T10:54:38.069Z,69.85
2022-10-11T10:57:54.468Z,68.67
2022-10-11T11:01:16.497Z,69.09
2022-10-11T11:04:24.399Z,70.63
2022-10-11T11:07:42.439Z,71.77
2022-10-11T11:11:20.325Z,71.46
2022-10-11T11:14:30.528Z,70.94
2022-10-11T11:17:44.046Z,71.10
2022-10-11T11:21:23.753Z,71.90
2022-10-11T11:24:59.554Z,71.51
2022-10-11T11:28:22.752Z,70.06
2022-10-11T11:31:32.655Z,70.27
2022-10-11T11:34:44.541Z,70.59
2022-10-11T11:37:58.572Z,70.38
2022-10-11T11:41:22.488Z,70.94
2022-10-11T11:44:43.933Z,71.30
2022-10-11T11:48:03.873Z,71.10
2022-10-11T11:51:35.387Z,70.69
2022-10-11T11:55:00.174Z,72.79
2022-10-11T11:58:26.478Z,71.40
2022-10-11T12:01:58.562Z,72.01
2022-10-11T12:05:05.130Z,72.78
2022-10-11T12:08:32.463Z,71.43
2022-10-11T12:11:48.669Z,73.00
2022-10-11T12:15:03.239Z,73.93
2022-10-11T12:18:17.060Z,72.26
2022-10-11T12:21:35.565Z,71.50
2022-10-11T12:25:03.130Z,70.45
2022-10-11T12:28:40.231Z,70.55
2022-10-11T12:31:46.657Z,70.82
2022-10-11T12:34:50.845Z,72.27
2022-10-11T12:38:07.408Z,71.86
2022-10-11T12:41:14.635Z,72.80
2022-10-11T12:45:05.969Z,73.19
2022-10-11T12:48:34.988Z,74.89
2022-10-11T12:52:00.338Z,74.98
2022-10-11T12:55:55.809Z,75.64
2022-10-11T12:59:07.473Z,73.40
2022-10-11T13:02:45.928Z,75.10
2022-10-11T13:05:53.754Z,74.12
2022-10-11T13:09:05.493Z,75.22
2022-10-11T13:12:20.721Z,74.85
2022-10-11T13:15:25.752Z,74.29
2022-10-11T13:18:30.145Z,73.83
2022-10-11T13:21:37.759Z,74.01
2022-10-11T13:24:43.342Z,72.38
2022-10-11T13:27:49.421Z,73.01
2022-10-11T13:30:57.448Z,74.11
2022-10-11T13:34:02.039Z,74.18
2022-10-11T13:37:07.319Z,73.96
2022-10-11T13:40:16.415Z,74.15
2022-10-11T13:43:24.347Z,75.35
2022-10-11T13:46:30.918Z,75.13
2022-10-11T13:49:39.989Z,75.46
2022-10-11T13:52:56.927Z,74.02
2022-10-11T13:56:05.031Z,74.03
2022-10-11T13:59:19.116Z,74.11
2022-10-11T14:02:27.373Z,74.59
2022-10-11T14:06:01.571Z,75.44
2022-10-11T14:09:06.102Z,75.34
2022-10-11T14:12:33.092Z,75.67
2022-10-11T14:15:38.971Z,76.60
2022-10-11T14:18:51.467Z,75.90
2022-10-11T14:21:55.847Z,76.18
2022-10-11T14:25:00.291Z,76.51
2022-10-11T14:28:13.828Z,75.79
2022-10-11T14:31:18.573Z,76.07
2022-10-11T14:34:25.482Z,74.39
2022-10-11T14:37:29.807Z,74.76
2022-10-11T14:40:34.560Z,73.60
2022-10-11T14:43:38.959Z,74.04
2022-10-11T14:46:44.084Z,73.33
2022-10-11T14:49:48.595Z,75.85
2022-10-11T14:52:53.155Z,74.45
2022-10-11T14:55:58.063Z,74.12
2022-10-11T14:59:02.626Z,74.71
2022-10-11T15:02:09.531Z,74.98
2022-10-11T15:05:14.033Z,74.64
2022-10-11T15:08:18.775Z,74.62
2022-10-11T15:11:24.102Z,76.15
2022-10-11T15:14:30.883Z,74.27
2022-10-11T15:17:35.585Z,73.32
2022-10-11T15:20:43.989Z,73.78
2022-10-11T15:23:49.380Z,73.53
2022-10-11T15:26:54.030Z,73.02
2022-10-11T15:29:58.434Z,73.28
2022-10-11T15:33:03.642Z,74.44
2022-10-11T15:36:13.592Z,75.40
2022-10-11T15:39:32.769Z,73.10
2022-10-11T15:42:37.227Z,72.36
2022-10-11T15:45:42.260Z,72.38
2022-10-11T15:48:47.698Z,74.20
2022-10-11T15:51:51.987Z,74.81
2022-10-11T15:54:56.302Z,75.96
2022-10-11T15:58:01.984Z,75.03
2022-10-11T16:01:19.490Z,75.04
2022-10-11T16:04:24.240Z,76.21
2022-10-11T16:07:28.945Z,74.98
2022-10-11T16:10:33.647Z,75.45
2022-10-11T16:13:39.011Z,75.97
2022-10-11T16:16:43.619Z,76.89
2022-10-11T16:19:47.988Z,76.99
2022-10-11T16:22:54.615Z,76.58
2022-10-11T16:26:01.149Z,76.25
2022-10-11T16:29:05.371Z,74.73
2022-10-11T16:32:10.042Z,74.58
2022-10-11T16:35:16.214Z,76.58
2022-10-11T16:38:20.723Z,77.00
2022-10-11T16:41:25.388Z,77.30
2022-10-11T16:44:29.811Z,75.89
2022-10-11T16:47:34.344Z,75.35
2022-10-11T16:50:39.823Z,74.88
2022-10-11T16:53:44.436Z,75.93
2022-10-11T16:56:50.835Z,75.97
2022-10-11T16:59:55.704Z,76.90
2022-10-11T17:03:00.273Z,77.34
2022-10-11T17:06:06.148Z,77.98
2022-10-11T17:09:12.167Z,78.47
2022-10-11T17:12:18.098Z,80.28
2022-10-11T17:15:23.954Z,79.51
2022-10-11T17:18:28.671Z,78.82
2022-10-11T17:21:33.107Z,77.50
2022-10-11T17:24:37.976Z,76.97
2022-10-11T17:27:43.671Z,75.61
2022-10-11T17:30:58.997Z,76.26
2022-10-11T17:34:03.456Z,78.19
2022-10-11T17:37:09.667Z,78.42
2022-10-11T17:40:13.891Z,77.27
2022-10-11T17:43:18.391Z,77.75
2022-10-11T17:46:23.435Z,76.95
2022-10-11T17:49:27.927Z,75.87
2022-10-11T17:52:32.603Z,77.11
2022-10-11T17:55:43.097Z,77.56
2022-10-11T17:58:47.987Z,77.48
2022-10-11T18:01:52.536Z,77.17
2022-10-11T18:04:57.245Z,75.60
2022-10-11T18:08:01.719Z,76.53
2022-10-11T18:11:06.791Z,75.51
2022-10-11T18:14:11.703Z,74.29
2022-10-11T18:17:16.387Z,73.84
2022-10-11T18:20:20.561Z,74.04
2022-10-11T18:23:25.101Z,75.56
2022-10-11T18:26:30.715Z,76.76
2022-10-11T18:29:35.442Z,78.48
2022-10-11T18:32:39.773Z,77.44
2022-10-11T18:35:44.492Z,77.22
2022-10-11T18:38:51.682Z,78.07
2022-10-11T18:41:56.161Z,77.75
2022-10-11T18:45:00.477Z,77.72
2022-10-11T18:48:06.374Z,78.46
2022-10-11T18:51:14.971Z,77.88
2022-10-11T18:54:21.354Z,77.80
2022-10-11T18:57:26.119Z,78.17
2022-10-11T19:00:40.700Z,78.56
2022-10-11T19:03:47.965Z,77.72
2022-10-11T19:06:54.236Z,76.14
2022-10-11T19:09:58.592Z,75.72
2022-10-11T19:13:02.968Z,76.63
2022-10-11T19:16:09.726Z,76.98
2022-10-11T19:19:15.757Z,78.59
2022-10-11T19:22:20.223Z,78.57
2022-10-11T19:25:26.097Z,78.56
2022-10-11T19:28:31.453Z,78.63
2022-10-11T19:31:37.699Z,79.32
2022-10-11T19:34:42.089Z,78.62
2022-10-11T19:37:46.521Z,78.55
2022-10-11T19:40:51.468Z,78.88
2022-10-11T19:43:58.848Z,78.48
2022-10-11T19:47:05.588Z,79.32
2022-10-11T19:50:10.356Z,78.15
2022-10-11T19:53:14.924Z,79.19
2022-10-11T19:56:20.304Z,78.19
2022-10-11T19:59:24.954Z,76.11
2022-10-11T20:02:29.851Z,75.77
2022-10-11T20:05:38.780Z,76.65
2022-10-11T20:08:44.890Z,78.30
2022-10-11T20:11:49.857Z,77.27
2022-10-11T20:14:54.222Z,78.52
2022-10-11T20:17:58.676Z,77.89
2022-10-11T20:21:07.104Z,79.17
2022-10-11T20:24:11.609Z,77.92
2022-10-11T20:27:16.067Z,80.13
2022-10-11T20:30:23.131Z,81.62
2022-10-11T20:33:27.236Z,82.38
2022-10-11T20:36:32.494Z,81.25
2022-10-11T20:39:36.983Z,81.52
2022-10-11T20:42:41.753Z,80.31
2022-10-11T20:45:48.137Z,81.88
2022-10-11T20:49:00.392Z,80.99
2022-10-11T20:52:05.559Z,78.55
2022-10-11T20:55:10.220Z,79.77
2022-10-11T20:58:19.283Z,79.18
2022-10-11T21:01:27.532Z,78.77
2022-10-11T21:04:32.359Z,78.50
2022-10-11T21:07:37.053Z,78.26
2022-10-11T21:10:41.610Z,79.16
2022-10-11T21:13:46.524Z,80.85
2022-10-11T21:16:50.945Z,81.09
2022-10-11T21:19:55.403Z,80.44
2022-10-11T21:22:59.946Z,80.97
2022-10-11T21:26:14.895Z,80.54
2022-10-11T21:29:19.514Z,81.66
2022-10-11T21:32:24.040Z,80.80
2022-10-11T21:35:30.360Z,80.42
2022-10-11T21:38:35.255Z,80.19
2022-10-11T21:41:42.744Z,80.18
2022-10-11T21:44:46.980Z,79.12
2022-10-11T21:47:51.490Z,78.72
2022-10-11T21:50:56.378Z,79.38
2022-10-11T21:54:01.971Z,79.89
2022-10-11T21:57:06.406Z,79.14
2022-10-11T22:00:11.836Z,79.70
2022-10-11T22:03:18.843Z,81.75
2022-10-11T22:06:23.579Z,80.81
2022-10-11T22:09:30.501Z,81.17
2022-10-11T22:12:35.614Z,81.17
2022-10-11T22:15:40.711Z,81.18
2022-10-11T22:18:44.993Z,81.52
2022-10-11T22:21:49.307Z,81.09
2022-10-11T22:24:56.338Z,82.23
2022-10-11T22:28:01.107Z,77.71
2022-10-11T22:31:10.457Z,78.09
2022-10-11T22:34:14.828Z,72.81
2022-10-11T22:37:19.371Z,72.23
2022-10-11T22:40:23.908Z,73.08
2022-10-11T22:43:28.257Z,71.94
2022-10-11T22:46:32.559Z,71.33
2022-10-11T22:49:36.889Z,71.55
2022-10-11T22:52:40.979Z,71.55
2022-10-11T22:55:45.742Z,71.94
2022-10-11T22:58:50.167Z,68.17
2022-10-11T23:01:54.625Z,72.45
2022-10-11T23:04:59.240Z,69.92
2022-10-11T23:08:03.832Z,70.19
2022-10-11T23:11:09.246Z,67.74
2022-10-11T23:14:13.658Z,67.63
2022-10-11T23:17:18.237Z,67.38
2022-10-11T23:20:22.517Z,68.15
2022-10-11T23:23:26.836Z,68.06
2022-10-11T23:26:31.280Z,69.38
2022-10-11T23:29:35.654Z,71.27
2022-10-11T23:32:39.973Z,68.90
2022-10-11T23:35:44.364Z,69.61
2022-10-11T23:38:58.554Z,67.14
2022-10-11T23:42:02.902Z,66.13
2022-10-11T23:45:08.131Z,64.54
2022-10-11T23:48:13.424Z,64.08
2022-10-11T23:51:17.974Z,62.41
2022-10-11T23:54:22.461Z,59.50
2022-10-11T23:57:26.952Z,59.43
